Time,TemperatureF,DewpointF,PressureIn,WindDirection,WindDirectionDegrees,WindSpeedMPH,WindSpeedGustMPH,Humidity,HourlyPrecipIn,Conditions,Clouds,dailyrainin,SolarRadiationWatts/m^2,SoftwareType,DateUTC
2013-10-13 00:03:00,49.0,41.0,-100.00,SW,220,4.0,6.0,73,0.00,,,0.32,0.000000,,2013-10-13 05:03:00,
2013-10-13 00:12:00,47.0,41.0,-100.00,SW,220,3.0,8.0,79,0.00,,,0.32,0.000000,,2013-10-13 05:12:00,
2013-10-13 00:43:00,47.0,41.0,-100.00,SW,220,3.0,8.0,79,0.00,,,0.32,0.000000,,2013-10-13 05:43:00,
2013-10-13 00:52:00,47.0,41.0,-100.00,SW,220,3.0,8.0,79,0.00,,,0.32,0.000000,,2013-10-13 05:52:00,
2013-10-13 01:02:00,47.0,41.0,-100.00,SW,220,3.0,8.0,79,0.00,,,0.32,0.000000,,2013-10-13 06:02:00,
2013-10-13 01:42:00,46.0,40.0,-100.00,WSW,255,4.0,6.0,79,0.00,,,0.32,0.000000,,2013-10-13 06:42:00,
2013-10-13 01:52:00,46.0,40.0,-100.00,WSW,255,4.0,6.0,79,0.00,,,0.32,0.000000,,2013-10-13 06:52:00,
2013-10-13 02:02:00,46.0,40.0,-100.00,WSW,255,4.0,6.0,79,0.00,,,0.32,0.000000,,2013-10-13 07:02:00,
2013-10-13 02:11:00,46.0,40.0,-100.00,WSW,255,4.0,6.0,79,0.00,,,0.32,0.000000,,2013-10-13 07:11:00,
2013-10-13 02:12:00,45.0,39.0,-100.00,WSW,254,5.0,8.0,79,0.00,,,0.32,0.000000,,2013-10-13 07:12:00,
2013-10-13 02:42:00,45.0,39.0,-100.00,WSW,254,5.0,8.0,79,0.00,,,0.32,0.000000,,2013-10-13 07:42:00,
2013-10-13 02:52:00,45.0,39.0,-100.00,WSW,254,5.0,8.0,79,0.00,,,0.32,0.000000,,2013-10-13 07:52:00,
2013-10-13 03:02:00,45.0,39.0,-100.00,WSW,254,5.0,8.0,79,0.00,,,0.32,0.000000,,2013-10-13 08:02:00,
2013-10-13 03:42:00,44.0,39.0,-100.00,SW,235,4.0,7.0,82,0.00,,,0.32,0.000000,,2013-10-13 08:42:00,
2013-10-13 03:52:00,44.0,39.0,-100.00,SW,235,4.0,7.0,82,0.00,,,0.32,0.000000,,2013-10-13 08:52:00,
2013-10-13 04:02:00,44.0,39.0,-100.00,SW,235,4.0,7.0,82,0.00,,,0.32,0.000000,,2013-10-13 09:02:00,
2013-10-13 04:11:00,44.0,39.0,-100.00,SW,235,4.0,7.0,82,0.00,,,0.32,0.000000,,2013-10-13 09:11:00,
2013-10-13 04:12:00,43.0,39.0,-100.00,West,279,3.0,7.0,87,0.00,,,0.32,0.000000,,2013-10-13 09:12:00,
2013-10-13 04:43:00,43.0,39.0,-100.00,West,279,3.0,7.0,87,0.00,,,0.32,0.000000,,2013-10-13 09:43:00,
2013-10-13 04:53:00,43.0,39.0,-100.00,West,279,3.0,7.0,87,0.00,,,0.32,0.000000,,2013-10-13 09:53:00,
2013-10-13 05:03:00,43.0,39.0,-100.00,West,279,3.0,7.0,87,0.00,,,0.32,0.000000,,2013-10-13 10:03:00,
2013-10-13 05:12:00,41.0,39.0,-100.00,West,270,1.0,4.0,94,0.00,,,0.32,0.000000,,2013-10-13 10:12:00,
2013-10-13 05:43:00,41.0,39.0,-100.00,West,270,1.0,4.0,94,0.00,,,0.32,0.000000,,2013-10-13 10:43:00,
2013-10-13 05:53:00,41.0,39.0,-100.00,West,270,1.0,4.0,94,0.00,,,0.32,0.000000,,2013-10-13 10:53:00,
2013-10-13 06:03:00,41.0,39.0,-100.00,West,270,1.0,4.0,94,0.00,,,0.32,0.000000,,2013-10-13 11:03:00,
2013-10-13 06:12:00,38.0,37.0,-100.00,SW,216,2.0,3.0,95,0.00,,,0.32,0.000000,,2013-10-13 11:12:00,
2013-10-13 06:42:00,38.0,37.0,-100.00,SW,216,2.0,3.0,95,0.00,,,0.32,0.000000,,2013-10-13 11:42:00,
2013-10-13 06:52:00,38.0,37.0,-100.00,SW,216,2.0,3.0,95,0.00,,,0.32,0.000000,,2013-10-13 11:52:00,
2013-10-13 07:01:00,38.0,37.0,-100.00,SW,216,2.0,3.0,95,0.00,,,0.32,0.000000,,2013-10-13 12:01:00,
2013-10-13 07:12:00,37.0,36.0,-100.00,WSW,239,1.0,3.0,96,0.00,,,0.32,1.000000,,2013-10-13 12:12:00,
2013-10-13 07:42:00,37.0,36.0,-100.00,WSW,239,1.0,3.0,96,0.00,,,0.32,1.000000,,2013-10-13 12:42:00,
2013-10-13 07:52:00,37.0,36.0,-100.00,WSW,239,1.0,3.0,96,0.00,,,0.32,1.000000,,2013-10-13 12:52:00,
2013-10-13 08:02:00,37.0,36.0,-100.00,WSW,239,1.0,3.0,96,0.00,,,0.32,1.000000,,2013-10-13 13:02:00,
2013-10-13 08:42:00,43.0,42.0,-100.00,WSW,239,1.0,4.0,96,0.00,,,0.32,27.000000,,2013-10-13 13:42:00,
2013-10-13 08:52:00,43.0,42.0,-100.00,WSW,239,1.0,4.0,96,0.00,,,0.32,27.000000,,2013-10-13 13:52:00,
2013-10-13 09:02:00,43.0,42.0,-100.00,WSW,239,1.0,4.0,96,0.00,,,0.32,27.000000,,2013-10-13 14:02:00,
2013-10-13 09:11:00,43.0,42.0,-100.00,WSW,239,1.0,4.0,96,0.00,,,0.32,27.000000,,2013-10-13 14:11:00,
2013-10-13 09:12:00,48.0,44.0,-100.00,West,281,5.0,8.0,86,0.00,,,0.32,56.000000,,2013-10-13 14:12:00,
2013-10-13 09:42:00,48.0,44.0,-100.00,West,281,5.0,8.0,86,0.00,,,0.32,56.000000,,2013-10-13 14:42:00,
2013-10-13 09:52:00,48.0,44.0,-100.00,West,281,5.0,8.0,86,0.00,,,0.32,56.000000,,2013-10-13 14:52:00,
2013-10-13 10:01:00,48.0,44.0,-100.00,West,281,5.0,8.0,86,0.00,,,0.32,56.000000,,2013-10-13 15:01:00,
2013-10-13 10:12:00,51.0,44.0,-100.00,WNW,292,5.0,10.0,76,0.00,,,0.32,145.000000,,2013-10-13 15:12:00,
2013-10-13 10:43:00,51.0,44.0,-100.00,WNW,292,5.0,10.0,76,0.00,,,0.32,145.000000,,2013-10-13 15:43:00,
2013-10-13 10:54:00,51.0,44.0,-100.00,WNW,292,5.0,10.0,76,0.00,,,0.32,145.000000,,2013-10-13 15:54:00,
2013-10-13 11:03:00,51.0,44.0,-100.00,WNW,292,5.0,10.0,76,0.00,,,0.32,145.000000,,2013-10-13 16:03:00,
2013-10-13 11:12:00,53.0,42.0,-100.00,NW,326,5.0,11.0,67,0.00,,,0.27,216.000000,,2013-10-13 16:12:00,
2013-10-13 11:43:00,53.0,42.0,-100.00,NW,326,5.0,11.0,67,0.00,,,0.27,216.000000,,2013-10-13 16:43:00,
2013-10-13 11:54:00,53.0,42.0,-100.00,NW,326,5.0,11.0,67,0.00,,,0.27,216.000000,,2013-10-13 16:54:00,
2013-10-13 12:03:00,53.0,42.0,-100.00,NW,326,5.0,11.0,67,0.00,,,0.27,216.000000,,2013-10-13 17:03:00,
2013-10-13 12:12:00,54.0,41.0,-100.00,NNW,344,5.0,11.0,61,0.00,,,0.25,243.000000,,2013-10-13 17:12:00,
2013-10-13 12:43:00,54.0,41.0,-100.00,NNW,344,5.0,11.0,61,0.00,,,0.25,243.000000,,2013-10-13 17:43:00,
2013-10-13 12:52:00,54.0,41.0,-100.00,NNW,344,5.0,11.0,61,0.00,,,0.25,243.000000,,2013-10-13 17:52:00,
2013-10-13 13:02:00,54.0,41.0,-100.00,NNW,344,5.0,11.0,61,0.00,,,0.25,243.000000,,2013-10-13 18:02:00,
2013-10-13 13:42:00,55.0,41.0,-100.00,NNW,327,5.0,11.0,58,0.00,,,0.00,210.000000,,2013-10-13 18:42:00,
2013-10-13 13:52:00,55.0,41.0,-100.00,NNW,327,5.0,11.0,58,0.00,,,0.00,210.000000,,2013-10-13 18:52:00,
2013-10-13 14:02:00,55.0,41.0,-100.00,NNW,327,5.0,11.0,58,0.00,,,0.00,210.000000,,2013-10-13 19:02:00,
2013-10-13 14:11:00,55.0,41.0,-100.00,NNW,327,5.0,11.0,58,0.00,,,0.00,210.000000,,2013-10-13 19:11:00,
2013-10-13 14:12:00,55.0,40.0,-100.00,NW,314,6.0,10.0,57,0.00,,,0.00,239.000000,,2013-10-13 19:12:00,
2013-10-13 14:42:00,55.0,40.0,-100.00,NW,314,6.0,10.0,57,0.00,,,0.00,239.000000,,2013-10-13 19:42:00,
2013-10-13 14:53:00,55.0,40.0,-100.00,NW,314,6.0,10.0,57,0.00,,,0.00,239.000000,,2013-10-13 19:53:00,
2013-10-13 15:02:00,55.0,40.0,-100.00,NW,314,6.0,10.0,57,0.00,,,0.00,239.000000,,2013-10-13 20:02:00,
2013-10-13 15:43:00,57.0,39.0,-100.00,NNE,15,3.0,10.0,50,0.00,,,0.00,265.000000,,2013-10-13 20:43:00,
2013-10-13 15:52:00,57.0,39.0,-100.00,NNE,15,3.0,10.0,50,0.00,,,0.00,265.000000,,2013-10-13 20:52:00,
2013-10-13 16:02:00,57.0,39.0,-100.00,NNE,15,3.0,10.0,50,0.00,,,0.00,265.000000,,2013-10-13 21:02:00,
2013-10-13 16:11:00,57.0,39.0,-100.00,NNE,15,3.0,10.0,50,0.00,,,0.00,265.000000,,2013-10-13 21:11:00,
2013-10-13 16:12:00,58.0,38.0,-100.00,North,356,3.0,11.0,47,0.00,,,0.00,231.000000,,2013-10-13 21:12:00,
2013-10-13 16:44:00,58.0,38.0,-100.00,North,356,3.0,11.0,47,0.00,,,0.00,231.000000,,2013-10-13 21:44:00,
2013-10-13 16:55:00,58.0,38.0,-100.00,North,356,3.0,11.0,47,0.00,,,0.00,231.000000,,2013-10-13 21:55:00,
2013-10-13 17:03:00,58.0,38.0,-100.00,North,356,3.0,11.0,47,0.00,,,0.00,231.000000,,2013-10-13 22:03:00,
2013-10-13 17:12:00,58.0,36.0,-100.00,NW,306,4.0,8.0,43,0.00,,,0.00,232.000000,,2013-10-13 22:12:00,
2013-10-13 17:43:00,58.0,36.0,-100.00,NW,306,4.0,8.0,43,0.00,,,0.00,232.000000,,2013-10-13 22:43:00,
2013-10-13 17:53:00,58.0,36.0,-100.00,NW,306,4.0,8.0,43,0.00,,,0.00,232.000000,,2013-10-13 22:53:00,
2013-10-13 18:03:00,58.0,36.0,-100.00,NW,306,4.0,8.0,43,0.00,,,0.00,232.000000,,2013-10-13 23:03:00,
2013-10-13 18:12:00,51.0,36.0,-100.00,WNW,292,2.0,6.0,57,0.00,,,0.00,43.000000,,2013-10-13 23:12:00,
2013-10-13 18:42:00,51.0,36.0,-100.00,WNW,292,2.0,6.0,57,0.00,,,0.00,43.000000,,2013-10-13 23:42:00,
2013-10-13 18:52:00,51.0,36.0,-100.00,WNW,292,2.0,6.0,57,0.00,,,0.00,43.000000,,2013-10-13 23:52:00,
2013-10-13 19:01:00,51.0,36.0,-100.00,WNW,292,2.0,6.0,57,0.00,,,0.00,43.000000,,2013-10-14 00:01:00,
2013-10-13 19:42:00,42.0,37.0,-100.00,NE,48,3.0,4.0,83,0.00,,,0.00,0.000000,,2013-10-14 00:42:00,
2013-10-13 19:52:00,42.0,37.0,-100.00,NE,48,3.0,4.0,83,0.00,,,0.00,0.000000,,2013-10-14 00:52:00,
2013-10-13 20:02:00,42.0,37.0,-100.00,NE,48,3.0,4.0,83,0.00,,,0.00,0.000000,,2013-10-14 01:02:00,
2013-10-13 20:11:00,42.0,37.0,-100.00,NE,48,3.0,4.0,83,0.00,,,0.00,0.000000,,2013-10-14 01:11:00,
2013-10-13 20:42:00,40.0,36.0,-100.00,NE,36,2.0,5.0,87,0.00,,,0.00,0.000000,,2013-10-14 01:42:00,
2013-10-13 20:52:00,40.0,36.0,-100.00,NE,36,2.0,5.0,87,0.00,,,0.00,0.000000,,2013-10-14 01:52:00,
2013-10-13 21:02:00,40.0,36.0,-100.00,NE,36,2.0,5.0,87,0.00,,,0.00,0.000000,,2013-10-14 02:02:00,
2013-10-13 21:11:00,40.0,36.0,-100.00,NE,36,2.0,5.0,87,0.00,,,0.00,0.000000,,2013-10-14 02:11:00,
2013-10-13 21:12:00,37.0,35.0,-100.00,NNE,15,0.0,2.0,93,0.00,,,-99.99,0.000000,,2013-10-14 02:12:00,
2013-10-13 21:42:00,37.0,35.0,-100.00,NNE,15,0.0,2.0,93,0.00,,,-99.99,0.000000,,2013-10-14 02:42:00,
2013-10-13 21:52:00,37.0,35.0,-100.00,NNE,15,0.0,2.0,93,0.00,,,-99.99,0.000000,,2013-10-14 02:52:00,
2013-10-13 22:02:00,37.0,35.0,-100.00,NNE,15,0.0,2.0,93,0.00,,,-99.99,0.000000,,2013-10-14 03:02:00,
2013-10-13 22:12:00,34.0,32.0,-100.00,WNW,296,2.0,3.0,94,0.00,,,0.00,0.000000,,2013-10-14 03:12:00,
2013-10-13 22:44:00,34.0,32.0,-100.00,WNW,296,2.0,3.0,94,0.00,,,0.00,0.000000,,2013-10-14 03:44:00,
2013-10-13 22:55:00,34.0,32.0,-100.00,WNW,296,2.0,3.0,94,0.00,,,0.00,0.000000,,2013-10-14 03:55:00,
2013-10-13 23:04:00,34.0,32.0,-100.00,WNW,296,2.0,3.0,94,0.00,,,0.00,0.000000,,2013-10-14 04:04:00,
2013-10-13 23:12:00,33.0,32.0,-100.00,WNW,299,2.0,3.0,95,0.00,,,0.00,0.000000,,2013-10-14 04:12:00,
2013-10-13 23:44:00,33.0,32.0,-100.00,WNW,299,2.0,3.0,95,0.00,,,0.00,0.000000,,2013-10-14 04:44:00,
2013-10-13 23:54:00,33.0,32.0,-100.00,WNW,299,2.0,3.0,95,0.00,,,0.00,0.000000,,2013-10-14 04:54:00,